sensor_id;sensor_type;location;lat;lon;timestamp;temperature;humidity
22607;DHT22;11470;20.968;105.834;2023-09-19T00:01:31;27.90;99.90
22607;DHT22;11470;20.968;105.834;2023-09-19T00:12:34;28.30;99.90
22607;DHT22;11470;20.968;105.834;2023-09-19T00:17:38;29.20;99.90
22607;DHT22;11470;20.968;105.834;2023-09-19T00:23:00;29.70;99.90
22607;DHT22;11470;20.968;105.834;2023-09-19T00:28:13;29.20;99.90
22607;DHT22;11470;20.968;105.834;2023-09-19T00:33:36;28.90;99.90
22607;DHT22;11470;20.968;105.834;2023-09-19T00:38:43;28.90;99.90
22607;DHT22;11470;20.968;105.834;2023-09-19T00:44:08;29.20;99.90
22607;DHT22;11470;20.968;105.834;2023-09-19T00:49:32;29.70;99.90
22607;DHT22;11470;20.968;105.834;2023-09-19T00:54:54;30.20;99.90
22607;DHT22;11470;20.968;105.834;2023-09-19T01:00:17;30.70;99.90
22607;DHT22;11470;20.968;105.834;2023-09-19T01:05:59;30.90;99.90
22607;DHT22;11470;20.968;105.834;2023-09-19T01:11:32;31.40;99.90
22607;DHT22;11470;20.968;105.834;2023-09-19T01:17:09;31.90;99.90
22607;DHT22;11470;20.968;105.834;2023-09-19T01:22:46;32.10;99.90
22607;DHT22;11470;20.968;105.834;2023-09-19T01:28:30;32.50;99.90
22607;DHT22;11470;20.968;105.834;2023-09-19T01:34:01;32.80;99.90
22607;DHT22;11470;20.968;105.834;2023-09-19T01:39:11;33.30;99.90
22607;DHT22;11470;20.968;105.834;2023-09-19T01:49:50;34.40;99.90
22607;DHT22;11470;20.968;105.834;2023-09-19T01:55:18;34.50;99.90
22607;DHT22;11470;20.968;105.834;2023-09-19T02:00:24;33.70;99.90
22607;DHT22;11470;20.968;105.834;2023-09-19T02:05:53;33.30;99.90
22607;DHT22;11470;20.968;105.834;2023-09-19T02:28:17;32.20;99.90
22607;DHT22;11470;20.968;105.834;2023-09-19T02:33:22;31.90;99.90
22607;DHT22;11470;20.968;105.834;2023-09-19T02:39:04;32.40;99.90
22607;DHT22;11470;20.968;105.834;2023-09-19T02:44:10;32.50;99.90
22607;DHT22;11470;20.968;105.834;2023-09-19T02:49:49;32.60;99.90
22607;DHT22;11470;20.968;105.834;2023-09-19T03:00:26;33.30;99.90
22607;DHT22;11470;20.968;105.834;2023-09-19T03:06:09;32.90;99.90
22607;DHT22;11470;20.968;105.834;2023-09-19T03:16:39;32.60;99.90
22607;DHT22;11470;20.968;105.834;2023-09-19T03:21:44;32.70;99.90
22607;DHT22;11470;20.968;105.834;2023-09-19T03:26:50;33.80;99.90
22607;DHT22;11470;20.968;105.834;2023-09-19T03:31:56;34.50;99.90
22607;DHT22;11470;20.968;105.834;2023-09-19T03:37:17;34.70;99.90
22607;DHT22;11470;20.968;105.834;2023-09-19T03:42:41;34.70;99.90
22607;DHT22;11470;20.968;105.834;2023-09-19T03:47:48;34.80;99.90
22607;DHT22;11470;20.968;105.834;2023-09-19T03:53:29;34.10;99.90
22607;DHT22;11470;20.968;105.834;2023-09-19T04:05:09;32.90;99.90
22607;DHT22;11470;20.968;105.834;2023-09-19T04:10:50;33.30;99.90
22607;DHT22;11470;20.968;105.834;2023-09-19T04:15:57;33.70;99.90
22607;DHT22;11470;20.968;105.834;2023-09-19T04:21:20;33.30;99.90
22607;DHT22;11470;20.968;105.834;2023-09-19T04:26:42;33.40;99.90
22607;DHT22;11470;20.968;105.834;2023-09-19T04:32:04;33.80;99.90
22607;DHT22;11470;20.968;105.834;2023-09-19T04:37:44;35.10;99.90
22607;DHT22;11470;20.968;105.834;2023-09-19T04:42:56;36.10;99.90
22607;DHT22;11470;20.968;105.834;2023-09-19T04:53:42;40.10;99.90
22607;DHT22;11470;20.968;105.834;2023-09-19T04:59:22;39.10;99.90
22607;DHT22;11470;20.968;105.834;2023-09-19T05:04:27;37.70;99.90
22607;DHT22;11470;20.968;105.834;2023-09-19T05:10:07;38.20;99.90
22607;DHT22;11470;20.968;105.834;2023-09-19T05:15:29;38.20;99.90
22607;DHT22;11470;20.968;105.834;2023-09-19T05:20:34;37.30;99.90
22607;DHT22;11470;20.968;105.834;2023-09-19T05:26:00;36.20;99.90
22607;DHT22;11470;20.968;105.834;2023-09-19T05:36:46;37.50;99.90
22607;DHT22;11470;20.968;105.834;2023-09-19T05:41:53;38.60;99.90
22607;DHT22;11470;20.968;105.834;2023-09-19T05:47:32;39.50;99.90
22607;DHT22;11470;20.968;105.834;2023-09-19T05:52:56;40.70;99.90
22607;DHT22;11470;20.968;105.834;2023-09-19T05:58:01;43.80;99.90
22607;DHT22;11470;20.968;105.834;2023-09-19T06:03:08;43.90;95.60
22607;DHT22;11470;20.968;105.834;2023-09-19T06:13:54;40.60;99.90
22607;DHT22;11470;20.968;105.834;2023-09-19T06:19:17;40.70;99.90
22607;DHT22;11470;20.968;105.834;2023-09-19T06:24:22;40.40;99.90
22607;DHT22;11470;20.968;105.834;2023-09-19T06:29:43;39.20;99.90
22607;DHT22;11470;20.968;105.834;2023-09-19T06:34:52;37.30;99.90
22607;DHT22;11470;20.968;105.834;2023-09-19T06:45:57;37.10;99.90
22607;DHT22;11470;20.968;105.834;2023-09-19T06:56:47;38.80;99.90
22607;DHT22;11470;20.968;105.834;2023-09-19T07:02:28;39.90;99.90
22607;DHT22;11470;20.968;105.834;2023-09-19T07:07:51;38.20;99.90
22607;DHT22;11470;20.968;105.834;2023-09-19T07:13:14;39.30;99.90
22607;DHT22;11470;20.968;105.834;2023-09-19T07:18:39;38.70;99.90
22607;DHT22;11470;20.968;105.834;2023-09-19T07:24:00;40.20;99.90
22607;DHT22;11470;20.968;105.834;2023-09-19T07:40:30;41.30;99.90
22607;DHT22;11470;20.968;105.834;2023-09-19T07:45:53;39.10;99.90
22607;DHT22;11470;20.968;105.834;2023-09-19T07:51:17;39.40;99.90
22607;DHT22;11470;20.968;105.834;2023-09-19T08:02:04;41.90;98.30
22607;DHT22;11470;20.968;105.834;2023-09-19T08:07:45;39.30;99.90
22607;DHT22;11470;20.968;105.834;2023-09-19T08:12:53;37.40;99.90
22607;DHT22;11470;20.968;105.834;2023-09-19T08:23:45;35.60;99.90
22607;DHT22;11470;20.968;105.834;2023-09-19T08:29:08;35.20;99.90
22607;DHT22;11470;20.968;105.834;2023-09-19T08:34:25;35.10;99.90
22607;DHT22;11470;20.968;105.834;2023-09-19T08:39:49;35.00;99.90
22607;DHT22;11470;20.968;105.834;2023-09-19T08:50:49;34.80;99.90
22607;DHT22;11470;20.968;105.834;2023-09-19T08:56:30;34.60;99.90
22607;DHT22;11470;20.968;105.834;2023-09-19T09:01:38;35.10;99.90
22607;DHT22;11470;20.968;105.834;2023-09-19T09:06:46;35.20;99.90
22607;DHT22;11470;20.968;105.834;2023-09-19T09:12:14;35.40;99.90
22607;DHT22;11470;20.968;105.834;2023-09-19T09:17:38;35.30;99.90
22607;DHT22;11470;20.968;105.834;2023-09-19T09:22:59;35.10;99.90
22607;DHT22;11470;20.968;105.834;2023-09-19T09:28:27;34.70;99.90
22607;DHT22;11470;20.968;105.834;2023-09-19T09:33:33;34.30;99.90
22607;DHT22;11470;20.968;105.834;2023-09-19T09:38:47;33.90;99.90
22607;DHT22;11470;20.968;105.834;2023-09-19T09:44:17;33.70;99.90
22607;DHT22;11470;20.968;105.834;2023-09-19T09:49:26;33.40;99.90
22607;DHT22;11470;20.968;105.834;2023-09-19T10:00:53;32.60;99.90
22607;DHT22;11470;20.968;105.834;2023-09-19T10:06:25;32.20;99.90
22607;DHT22;11470;20.968;105.834;2023-09-19T10:23:51;31.00;99.90
22607;DHT22;11470;20.968;105.834;2023-09-19T10:29:00;30.90;99.90
22607;DHT22;11470;20.968;105.834;2023-09-19T10:34:42;30.70;99.90
22607;DHT22;11470;20.968;105.834;2023-09-19T10:39:47;30.50;99.90
22607;DHT22;11470;20.968;105.834;2023-09-19T10:45:11;30.40;99.90
22607;DHT22;11470;20.968;105.834;2023-09-19T10:50:22;30.20;99.90
22607;DHT22;11470;20.968;105.834;2023-09-19T10:55:28;30.20;99.90
22607;DHT22;11470;20.968;105.834;2023-09-19T11:00:56;30.10;99.90
22607;DHT22;11470;20.968;105.834;2023-09-19T11:06:09;29.90;99.90
22607;DHT22;11470;20.968;105.834;2023-09-19T11:11:41;29.90;99.90
22607;DHT22;11470;20.968;105.834;2023-09-19T11:33:47;29.60;99.90
22607;DHT22;11470;20.968;105.834;2023-09-19T11:49:32;29.40;99.90
22607;DHT22;11470;20.968;105.834;2023-09-19T12:00:23;29.30;99.90
22607;DHT22;11470;20.968;105.834;2023-09-19T12:05:45;29.30;99.90
22607;DHT22;11470;20.968;105.834;2023-09-19T12:22:23;29.20;99.90
22607;DHT22;11470;20.968;105.834;2023-09-19T12:27:48;29.20;99.90
22607;DHT22;11470;20.968;105.834;2023-09-19T12:33:20;29.10;99.90
22607;DHT22;11470;20.968;105.834;2023-09-19T12:38:48;29.10;99.90
22607;DHT22;11470;20.968;105.834;2023-09-19T12:44:48;29.00;99.90
22607;DHT22;11470;20.968;105.834;2023-09-19T12:50:30;28.90;99.90
22607;DHT22;11470;20.968;105.834;2023-09-19T12:55:34;28.90;99.90
22607;DHT22;11470;20.968;105.834;2023-09-19T13:00:44;28.90;99.90
22607;DHT22;11470;20.968;105.834;2023-09-19T13:05:56;28.90;99.90
22607;DHT22;11470;20.968;105.834;2023-09-19T13:11:12;28.90;99.90
22607;DHT22;11470;20.968;105.834;2023-09-19T13:16:17;28.80;99.90
22607;DHT22;11470;20.968;105.834;2023-09-19T13:21:42;28.80;99.90
22607;DHT22;11470;20.968;105.834;2023-09-19T13:27:25;28.70;99.90
22607;DHT22;11470;20.968;105.834;2023-09-19T13:32:35;28.80;99.90
22607;DHT22;11470;20.968;105.834;2023-09-19T13:37:42;28.70;99.90
22607;DHT22;11470;20.968;105.834;2023-09-19T13:43:02;28.80;99.90
22607;DHT22;11470;20.968;105.834;2023-09-19T13:48:31;28.90;99.90
22607;DHT22;11470;20.968;105.834;2023-09-19T13:53:39;28.90;99.90
22607;DHT22;11470;20.968;105.834;2023-09-19T13:58:44;28.80;99.90
22607;DHT22;11470;20.968;105.834;2023-09-19T14:03:50;28.70;99.90
22607;DHT22;11470;20.968;105.834;2023-09-19T14:08:55;28.90;99.90
22607;DHT22;11470;20.968;105.834;2023-09-19T14:14:00;28.80;99.90
22607;DHT22;11470;20.968;105.834;2023-09-19T14:19:05;28.80;99.90
22607;DHT22;11470;20.968;105.834;2023-09-19T14:24:13;28.70;99.90
22607;DHT22;11470;20.968;105.834;2023-09-19T14:29:40;28.60;99.90
22607;DHT22;11470;20.968;105.834;2023-09-19T14:34:45;28.50;99.90
22607;DHT22;11470;20.968;105.834;2023-09-19T14:39:50;28.70;99.90
22607;DHT22;11470;20.968;105.834;2023-09-19T14:44:55;28.60;99.90
22607;DHT22;11470;20.968;105.834;2023-09-19T14:50:02;28.60;99.90
22607;DHT22;11470;20.968;105.834;2023-09-19T14:55:11;28.60;99.90
22607;DHT22;11470;20.968;105.834;2023-09-19T15:00:18;28.70;99.90
22607;DHT22;11470;20.968;105.834;2023-09-19T15:05:25;28.70;99.90
22607;DHT22;11470;20.968;105.834;2023-09-19T15:10:31;28.60;99.90
22607;DHT22;11470;20.968;105.834;2023-09-19T15:15:36;28.70;99.90
22607;DHT22;11470;20.968;105.834;2023-09-19T15:20:44;28.70;99.90
22607;DHT22;11470;20.968;105.834;2023-09-19T15:25:50;28.70;99.90
22607;DHT22;11470;20.968;105.834;2023-09-19T15:30:59;28.70;99.90
22607;DHT22;11470;20.968;105.834;2023-09-19T15:41:12;28.50;99.90
22607;DHT22;11470;20.968;105.834;2023-09-19T15:46:18;28.50;99.90
22607;DHT22;11470;20.968;105.834;2023-09-19T15:51:27;28.40;99.90
22607;DHT22;11470;20.968;105.834;2023-09-19T15:56:33;28.30;99.90
22607;DHT22;11470;20.968;105.834;2023-09-19T16:01:45;28.30;99.90
22607;DHT22;11470;20.968;105.834;2023-09-19T16:06:51;28.30;99.90
22607;DHT22;11470;20.968;105.834;2023-09-19T16:11:57;28.20;99.90
22607;DHT22;11470;20.968;105.834;2023-09-19T16:17:05;28.10;99.90
22607;DHT22;11470;20.968;105.834;2023-09-19T16:22:14;28.10;99.90
22607;DHT22;11470;20.968;105.834;2023-09-19T16:27:19;28.10;99.90
22607;DHT22;11470;20.968;105.834;2023-09-19T16:32:24;28.10;99.90
22607;DHT22;11470;20.968;105.834;2023-09-19T16:37:29;28.10;99.90
22607;DHT22;11470;20.968;105.834;2023-09-19T16:42:42;28.10;99.90
22607;DHT22;11470;20.968;105.834;2023-09-19T16:47:47;28.10;99.90
22607;DHT22;11470;20.968;105.834;2023-09-19T16:52:52;28.10;99.90
22607;DHT22;11470;20.968;105.834;2023-09-19T16:57:58;28.00;99.90
22607;DHT22;11470;20.968;105.834;2023-09-19T17:03:04;28.10;99.90
22607;DHT22;11470;20.968;105.834;2023-09-19T17:08:10;28.00;99.90
22607;DHT22;11470;20.968;105.834;2023-09-19T17:13:15;28.10;99.90
22607;DHT22;11470;20.968;105.834;2023-09-19T17:18:19;28.10;99.90
22607;DHT22;11470;20.968;105.834;2023-09-19T17:23:24;28.10;99.90
22607;DHT22;11470;20.968;105.834;2023-09-19T17:28:29;28.10;99.90
22607;DHT22;11470;20.968;105.834;2023-09-19T17:33:34;28.30;99.90
22607;DHT22;11470;20.968;105.834;2023-09-19T17:44:48;28.00;99.90
22607;DHT22;11470;20.968;105.834;2023-09-19T17:49:53;28.00;99.90
22607;DHT22;11470;20.968;105.834;2023-09-19T17:54:58;28.00;99.90
22607;DHT22;11470;20.968;105.834;2023-09-19T18:00:03;28.00;99.90
22607;DHT22;11470;20.968;105.834;2023-09-19T18:05:13;27.90;99.90
22607;DHT22;11470;20.968;105.834;2023-09-19T18:10:23;28.00;99.90
22607;DHT22;11470;20.968;105.834;2023-09-19T18:22:15;28.30;99.90
22607;DHT22;11470;20.968;105.834;2023-09-19T18:27:22;28.20;99.90
22607;DHT22;11470;20.968;105.834;2023-09-19T18:38:23;28.10;99.90
22607;DHT22;11470;20.968;105.834;2023-09-19T18:43:29;27.90;99.90
22607;DHT22;11470;20.968;105.834;2023-09-19T18:48:39;27.90;99.90
22607;DHT22;11470;20.968;105.834;2023-09-19T18:53:45;27.80;99.90
22607;DHT22;11470;20.968;105.834;2023-09-19T18:59:08;27.90;99.90
22607;DHT22;11470;20.968;105.834;2023-09-19T19:04:14;28.00;99.90
22607;DHT22;11470;20.968;105.834;2023-09-19T19:09:19;28.00;99.90
22607;DHT22;11470;20.968;105.834;2023-09-19T19:14:24;27.90;99.90
22607;DHT22;11470;20.968;105.834;2023-09-19T19:19:30;27.90;99.90
22607;DHT22;11470;20.968;105.834;2023-09-19T19:24:35;27.90;99.90
22607;DHT22;11470;20.968;105.834;2023-09-19T19:29:47;27.90;99.90
22607;DHT22;11470;20.968;105.834;2023-09-19T19:35:16;27.80;99.90
22607;DHT22;11470;20.968;105.834;2023-09-19T19:40:22;27.90;99.90
22607;DHT22;11470;20.968;105.834;2023-09-19T19:45:27;27.70;99.90
22607;DHT22;11470;20.968;105.834;2023-09-19T19:50:37;27.70;99.90
22607;DHT22;11470;20.968;105.834;2023-09-19T19:55:49;27.70;99.90
22607;DHT22;11470;20.968;105.834;2023-09-19T20:01:01;27.70;99.90
22607;DHT22;11470;20.968;105.834;2023-09-19T20:06:08;27.70;99.90
22607;DHT22;11470;20.968;105.834;2023-09-19T20:11:12;27.70;99.90
22607;DHT22;11470;20.968;105.834;2023-09-19T20:16:18;27.70;99.90
22607;DHT22;11470;20.968;105.834;2023-09-19T20:21:23;27.60;99.90
22607;DHT22;11470;20.968;105.834;2023-09-19T20:26:28;27.60;99.90
22607;DHT22;11470;20.968;105.834;2023-09-19T20:31:34;27.60;99.90
22607;DHT22;11470;20.968;105.834;2023-09-19T20:36:39;27.60;99.90
22607;DHT22;11470;20.968;105.834;2023-09-19T20:41:44;27.60;99.90
22607;DHT22;11470;20.968;105.834;2023-09-19T20:47:02;27.50;99.90
22607;DHT22;11470;20.968;105.834;2023-09-19T20:52:17;27.50;99.90
22607;DHT22;11470;20.968;105.834;2023-09-19T20:57:22;27.50;99.90
22607;DHT22;11470;20.968;105.834;2023-09-19T21:02:33;27.50;99.90
22607;DHT22;11470;20.968;105.834;2023-09-19T21:07:38;27.50;99.90
22607;DHT22;11470;20.968;105.834;2023-09-19T21:12:46;27.40;99.90
22607;DHT22;11470;20.968;105.834;2023-09-19T21:18:05;27.40;99.90
22607;DHT22;11470;20.968;105.834;2023-09-19T21:23:14;27.30;99.90
22607;DHT22;11470;20.968;105.834;2023-09-19T21:28:24;27.30;99.90
22607;DHT22;11470;20.968;105.834;2023-09-19T21:33:43;27.20;99.90
22607;DHT22;11470;20.968;105.834;2023-09-19T21:39:26;27.20;99.90
22607;DHT22;11470;20.968;105.834;2023-09-19T21:44:46;27.30;99.90
22607;DHT22;11470;20.968;105.834;2023-09-19T21:49:53;27.30;99.90
22607;DHT22;11470;20.968;105.834;2023-09-19T21:54:58;27.30;99.90
22607;DHT22;11470;20.968;105.834;2023-09-19T22:00:03;27.40;99.90
22607;DHT22;11470;20.968;105.834;2023-09-19T22:10:51;27.40;99.90
22607;DHT22;11470;20.968;105.834;2023-09-19T22:15:59;27.30;99.90
22607;DHT22;11470;20.968;105.834;2023-09-19T22:21:04;27.30;99.90
22607;DHT22;11470;20.968;105.834;2023-09-19T22:26:17;27.30;99.90
22607;DHT22;11470;20.968;105.834;2023-09-19T22:31:24;27.20;99.90
22607;DHT22;11470;20.968;105.834;2023-09-19T22:36:32;27.20;99.90
22607;DHT22;11470;20.968;105.834;2023-09-19T22:42:36;27.10;99.90
22607;DHT22;11470;20.968;105.834;2023-09-19T22:47:41;27.10;99.90
22607;DHT22;11470;20.968;105.834;2023-09-19T22:52:48;27.10;99.90
22607;DHT22;11470;20.968;105.834;2023-09-19T22:57:55;27.10;99.90
22607;DHT22;11470;20.968;105.834;2023-09-19T23:03:00;27.10;99.90
22607;DHT22;11470;20.968;105.834;2023-09-19T23:08:09;27.20;99.90
22607;DHT22;11470;20.968;105.834;2023-09-19T23:13:15;27.20;99.90
22607;DHT22;11470;20.968;105.834;2023-09-19T23:18:31;27.20;99.90
22607;DHT22;11470;20.968;105.834;2023-09-19T23:23:40;27.30;99.90
22607;DHT22;11470;20.968;105.834;2023-09-19T23:34:55;27.40;99.90
22607;DHT22;11470;20.968;105.834;2023-09-19T23:40:01;27.60;99.90
22607;DHT22;11470;20.968;105.834;2023-09-19T23:45:08;27.70;99.90
22607;DHT22;11470;20.968;105.834;2023-09-19T23:50:15;27.80;99.90
22607;DHT22;11470;20.968;105.834;2023-09-19T23:55:22;28.00;99.90
